Jamestown, KY (42629)

11:48 PM CDT on September 30, 2016 (GMT -0500)
Bryan (LazyDaze) | | Change Station
Active Advisory: Dense Fog Advisory

Elev 978 ft 36.94 °N, 85.20 °W | Updated 6 seconds ago

Clear
Clear
55.2 °F
Feels Like 55.2 °F
N
0.2
Wind Variable Wind from SW
Gusts 2.5 mph

Today
High -- | Low -- °F
--% Chance of Precip.
Yesterday
High -- | Low -- °F
Precip. -- in
Pressure 30.06 in
Visibility 10.0 miles
Clouds Clear
Dew Point 54 °F
Humidity 97%
Rainfall 0.00 in
Snow Depth Not available.
6:35 AM 6:24 PM
New Moon, 0% visible
METAR KSME 010435Z AUTO 15003KT 10SM CLR 12/12 A3006 RMK AO2
Pressure 30.06 in
Visibility 10.0 miles
Clouds Clear
Dew Point 54 °F
Humidity 97%
Rainfall 0.00 in
Snow Depth Not available.
6:35 AM 6:24 PM
New Moon, 0% visible
METAR KSME 010435Z AUTO 15003KT 10SM CLR 12/12 A3006 RMK AO2

10-Day Weather Forecast

Almanac

Astronomy

Sep. 30, 2016 Rise Set
Actual Time
Civil Twilight
Nautical Twilight
Astronomical Twilight
Moon
Length of Visible Light
Length of Day
Tomorrow will be .
, % of the Moon is Illuminated

Today's Extremes

State Highs State Lows

Community

WunderPhotos

Upload Photos

1,942,894 photos uploaded!

WunderBlog® & News

Nearby

Air Quality

  Air Quality AQ Index Pollutant
Not available.

Snow Depth

Station Depth Elevation

Earthquake Activity

City Distance Mag. Time & Date
Minimum magnitude displayed is 2.5.

Coastal Water Temperatures

Place Temperature

Stations

Nearby Weather Stations

Station Location Temp. Windchill Dew Point Humidity Wind Precip. Elev Updated Type
                   

Watches & Warnings

Dense Fog Advisory
Issued: 8:51 PM CDT Sep. 30, 2016 – National Weather Service

... Dense fog advisory remains in effect from 3 am EDT /2 am CDT/
to 10 am EDT /9 am CDT/ Saturday...

* visibility... 1/4 mile or less

* impacts... rapidly changing visibility over short distances.
Motorists should use caution when encountering fog.

Precautionary/preparedness actions...

A dense fog advisory means visibilities will frequently be
reduced to less than one quarter mile. If driving... slow down...
use your low beam headlights... and leave plenty of distance ahead
of you.



13